createdAt,value
2022-08-21T00:01:39.999Z,7.85
2022-08-21T00:04:08.694Z,7.40
2022-08-21T00:06:35.870Z,8.55
2022-08-21T00:09:06.771Z,7.53
2022-08-21T00:11:36.024Z,7.37
2022-08-21T00:14:04.223Z,7.70
2022-08-21T00:16:31.519Z,7.40
2022-08-21T00:18:58.203Z,7.90
2022-08-21T00:21:26.189Z,8.00
2022-08-21T00:23:53.342Z,7.50
2022-08-21T00:26:19.983Z,7.53
2022-08-21T00:28:50.070Z,8.00
2022-08-21T00:31:17.795Z,7.10
2022-08-21T00:33:45.291Z,7.65
2022-08-21T00:36:12.331Z,8.67
2022-08-21T00:38:38.944Z,6.88
2022-08-21T00:41:21.185Z,7.65
2022-08-21T00:43:55.980Z,7.40
2022-08-21T00:46:28.286Z,7.60
2022-08-21T00:48:58.745Z,7.80
2022-08-21T00:51:59.092Z,7.78
2022-08-21T00:54:28.225Z,7.18
2022-08-21T00:57:00.694Z,7.35
2022-08-21T00:59:29.382Z,7.55
2022-08-21T01:01:56.568Z,7.57
2022-08-21T01:04:24.094Z,7.32
2022-08-21T01:06:52.397Z,7.03
2022-08-21T01:09:19.984Z,7.25
2022-08-21T01:11:47.558Z,7.70
2022-08-21T01:14:15.421Z,7.33
2022-08-21T01:16:45.389Z,7.05
2022-08-21T01:19:12.849Z,7.43
2022-08-21T01:21:39.469Z,7.65
2022-08-21T01:24:06.717Z,7.90
2022-08-21T01:26:38.056Z,7.37
2022-08-21T01:29:42.109Z,7.00
2022-08-21T01:32:13.280Z,6.90
2022-08-21T01:34:43.297Z,6.90
2022-08-21T01:37:10.939Z,7.20
2022-08-21T01:39:38.229Z,7.70
2022-08-21T01:42:06.046Z,7.03
2022-08-21T01:44:33.343Z,7.20
2022-08-21T01:47:02.327Z,7.40
2022-08-21T01:49:28.997Z,6.78
2022-08-21T01:51:55.959Z,7.03
2022-08-21T01:54:22.690Z,6.85
2022-08-21T01:56:52.891Z,7.18
2022-08-21T01:59:20.083Z,7.03
2022-08-21T02:01:46.924Z,6.65
2022-08-21T02:04:13.550Z,7.03
2022-08-21T02:06:40.187Z,7.20
2022-08-21T02:09:09.674Z,7.05
2022-08-21T02:11:37.591Z,8.27
2022-08-21T02:14:04.325Z,7.63
2022-08-21T02:16:30.993Z,7.27
2022-08-21T02:18:57.933Z,7.47
2022-08-21T02:21:24.565Z,6.75
2022-08-21T02:23:51.166Z,6.72
2022-08-21T02:26:18.219Z,6.90
2022-08-21T02:28:45.049Z,7.73
2022-08-21T02:31:12.125Z,7.53
2022-08-21T02:33:40.380Z,7.22
2022-08-21T02:36:08.881Z,6.55
2022-08-21T02:38:40.044Z,7.13
2022-08-21T02:41:19.453Z,7.20
2022-08-21T02:43:46.390Z,6.80
2022-08-21T02:46:15.211Z,6.80
2022-08-21T02:48:41.989Z,8.30
2022-08-21T02:51:14.618Z,6.88
2022-08-21T02:53:42.477Z,7.03
2022-08-21T02:56:12.891Z,6.47
2022-08-21T02:58:43.346Z,6.65
2022-08-21T03:01:11.602Z,7.18
2022-08-21T03:03:40.424Z,7.18
2022-08-21T03:06:09.162Z,6.73
2022-08-21T03:08:36.782Z,7.07
2022-08-21T03:11:03.513Z,6.35
2022-08-21T03:13:30.506Z,7.25
2022-08-21T03:15:57.607Z,6.55
2022-08-21T03:18:25.108Z,6.10
2022-08-21T03:20:51.947Z,6.82
2022-08-21T03:23:19.586Z,6.97
2022-08-21T03:25:47.828Z,6.43
2022-08-21T03:28:18.033Z,7.57
2022-08-21T03:30:47.511Z,6.30
2022-08-21T03:33:15.515Z,6.72
2022-08-21T03:35:45.059Z,6.45
2022-08-21T03:38:13.873Z,6.78
2022-08-21T03:40:42.194Z,6.10
2022-08-21T03:43:10.660Z,5.83
2022-08-21T03:45:38.391Z,5.90
2022-08-21T03:48:05.999Z,5.90
2022-08-21T03:50:40.773Z,6.65
2022-08-21T03:53:08.999Z,6.15
2022-08-21T03:55:45.006Z,5.83
2022-08-21T03:58:16.879Z,6.07
2022-08-21T04:00:46.245Z,6.80
2022-08-21T04:03:12.982Z,5.80
2022-08-21T04:05:40.141Z,6.68
2022-08-21T04:08:07.741Z,6.67
2022-08-21T04:10:37.047Z,6.22
2022-08-21T04:13:05.019Z,5.95
2022-08-21T04:15:31.910Z,6.55
2022-08-21T04:17:58.511Z,6.63
2022-08-21T04:20:26.054Z,5.47
2022-08-21T04:22:53.491Z,6.07
2022-08-21T04:25:23.563Z,6.32
2022-08-21T04:27:50.417Z,5.80
2022-08-21T04:30:17.723Z,6.40
2022-08-21T04:32:49.971Z,5.90
2022-08-21T04:35:22.157Z,6.43
2022-08-21T04:37:49.237Z,6.35
2022-08-21T04:40:18.082Z,5.75
2022-08-21T04:42:50.988Z,6.38
2022-08-21T04:45:25.238Z,5.77
2022-08-21T04:47:53.990Z,5.53
2022-08-21T04:50:25.769Z,5.88
2022-08-21T04:52:53.119Z,6.13
2022-08-21T04:55:20.873Z,6.40
2022-08-21T04:57:49.265Z,6.33
2022-08-21T05:00:19.819Z,5.60
2022-08-21T05:02:48.667Z,5.85
2022-08-21T05:05:16.943Z,5.78
2022-08-21T05:07:45.540Z,6.43
2022-08-21T05:10:13.809Z,5.87
2022-08-21T05:12:42.927Z,5.55
2022-08-21T05:15:13.483Z,6.22
2022-08-21T05:17:41.243Z,5.55
2022-08-21T05:20:09.636Z,5.80
2022-08-21T05:22:36.351Z,6.00
2022-08-21T05:25:03.341Z,5.97
2022-08-21T05:27:36.979Z,5.65
2022-08-21T05:30:10.341Z,6.22
2022-08-21T05:32:37.540Z,5.85
2022-08-21T05:35:07.051Z,6.47
2022-08-21T05:37:34.778Z,5.45
2022-08-21T05:40:05.295Z,5.80
2022-08-21T05:42:53.914Z,5.45
2022-08-21T05:45:42.344Z,5.45
2022-08-21T05:48:17.330Z,5.47
2022-08-21T05:50:46.172Z,5.38
2022-08-21T05:53:13.660Z,6.03
2022-08-21T05:55:45.901Z,6.18
2022-08-21T05:58:15.638Z,6.07
2022-08-21T06:00:42.521Z,5.40
2022-08-21T06:03:18.738Z,4.80
2022-08-21T06:05:46.598Z,5.80
2022-08-21T06:08:13.577Z,5.47
2022-08-21T06:10:40.233Z,6.20
2022-08-21T06:13:06.875Z,5.10
2022-08-21T06:15:33.532Z,5.80
2022-08-21T06:18:00.158Z,5.97
2022-08-21T06:20:27.034Z,6.05
2022-08-21T06:22:53.760Z,6.18
2022-08-21T06:25:20.473Z,4.87
2022-08-21T06:27:48.001Z,5.20
2022-08-21T06:30:15.214Z,5.25
2022-08-21T06:32:41.955Z,6.88
2022-08-21T06:35:09.003Z,5.60
2022-08-21T06:37:35.790Z,5.20
2022-08-21T06:40:04.789Z,5.20
2022-08-21T06:42:31.444Z,5.68
2022-08-21T06:44:58.415Z,4.80
2022-08-21T06:47:25.048Z,6.18
2022-08-21T06:49:51.752Z,4.77
2022-08-21T06:52:18.377Z,6.35
2022-08-21T06:54:45.004Z,5.95
2022-08-21T06:57:11.774Z,5.20
2022-08-21T06:59:38.440Z,5.57
2022-08-21T07:02:05.089Z,5.10
2022-08-21T07:04:31.950Z,5.53
2022-08-21T07:06:58.609Z,5.10
2022-08-21T07:09:25.317Z,5.25
2022-08-21T07:11:54.614Z,5.57
2022-08-21T07:14:21.449Z,4.70
2022-08-21T07:16:49.077Z,5.25
2022-08-21T07:19:15.776Z,5.65
2022-08-21T07:21:42.674Z,5.55
2022-08-21T07:24:09.848Z,5.53
2022-08-21T07:26:36.677Z,5.13
2022-08-21T07:29:03.902Z,6.47
2022-08-21T07:31:30.623Z,6.57
2022-08-21T07:33:57.288Z,4.90
2022-08-21T07:36:24.477Z,5.45
2022-08-21T07:38:52.662Z,5.37
2022-08-21T07:41:26.738Z,5.32
2022-08-21T07:43:53.898Z,5.10
2022-08-21T07:46:20.926Z,5.35
2022-08-21T07:48:47.957Z,4.70
2022-08-21T07:51:17.553Z,5.60
2022-08-21T07:53:52.223Z,4.93
2022-08-21T07:56:19.125Z,5.90
2022-08-21T07:58:46.129Z,5.05
2022-08-21T08:01:13.029Z,5.45
2022-08-21T08:03:40.064Z,5.00
2022-08-21T08:06:09.568Z,5.13
2022-08-21T08:08:36.169Z,5.53
2022-08-21T08:11:04.086Z,5.18
2022-08-21T08:13:30.706Z,4.95
2022-08-21T08:15:57.612Z,4.90
2022-08-21T08:18:24.377Z,4.88
2022-08-21T08:20:51.036Z,4.80
2022-08-21T08:23:17.736Z,4.80
2022-08-21T08:25:44.510Z,4.82
2022-08-21T08:28:17.398Z,5.20
2022-08-21T08:30:46.260Z,5.70
2022-08-21T08:33:13.272Z,5.50
2022-08-21T08:35:46.220Z,4.50
2022-08-21T08:38:13.349Z,4.72
2022-08-21T08:40:52.814Z,4.37
2022-08-21T08:43:20.316Z,5.03
2022-08-21T08:45:51.052Z,5.32
2022-08-21T08:48:52.862Z,4.55
2022-08-21T08:51:45.001Z,5.03
2022-08-21T08:54:32.502Z,4.53
2022-08-21T08:57:04.201Z,4.50
2022-08-21T08:59:40.714Z,4.30
2022-08-21T09:02:10.445Z,5.10
2022-08-21T09:04:37.464Z,4.45
2022-08-21T09:07:07.126Z,4.80
2022-08-21T09:09:45.638Z,5.15
2022-08-21T09:12:45.935Z,4.78
2022-08-21T09:15:30.278Z,4.95
2022-08-21T09:18:19.819Z,4.72
2022-08-21T09:21:01.405Z,4.57
2022-08-21T09:23:42.886Z,4.80
2022-08-21T09:26:19.178Z,4.88
2022-08-21T09:28:50.574Z,4.45
2022-08-21T09:31:31.896Z,4.40
2022-08-21T09:34:00.281Z,4.73
2022-08-21T09:36:38.317Z,4.88
2022-08-21T09:39:06.337Z,4.30
2022-08-21T09:41:36.457Z,4.90
2022-08-21T09:44:04.592Z,4.95
2022-08-21T09:46:31.366Z,4.03
2022-08-21T09:49:01.992Z,4.93
2022-08-21T09:51:33.696Z,5.18
2022-08-21T09:54:06.072Z,4.10
2022-08-21T09:56:53.012Z,4.40
2022-08-21T09:59:21.486Z,4.30
2022-08-21T10:01:52.534Z,4.13
2022-08-21T10:04:29.044Z,5.07
2022-08-21T10:06:58.214Z,4.80
2022-08-21T10:09:24.929Z,4.40
2022-08-21T10:12:15.937Z,4.17
2022-08-21T10:14:54.683Z,4.07
2022-08-21T10:17:38.261Z,4.00
2022-08-21T10:20:12.805Z,3.63
2022-08-21T10:22:51.678Z,4.05
2022-08-21T10:25:39.038Z,4.30
2022-08-21T10:28:27.600Z,4.45
2022-08-21T10:31:03.894Z,4.75
2022-08-21T10:33:42.464Z,4.30
2022-08-21T10:36:22.501Z,4.30
2022-08-21T10:39:25.854Z,3.73
2022-08-21T10:42:31.439Z,4.43
2022-08-21T10:44:58.186Z,4.10
2022-08-21T10:47:45.757Z,4.07
2022-08-21T10:50:23.423Z,3.88
2022-08-21T10:52:49.941Z,3.90
2022-08-21T10:55:31.914Z,4.38
2022-08-21T10:58:12.478Z,3.83
2022-08-21T11:00:54.565Z,3.80
2022-08-21T11:03:34.872Z,3.70
2022-08-21T11:06:18.960Z,4.13
2022-08-21T11:08:52.139Z,4.78
2022-08-21T11:11:31.070Z,3.85
2022-08-21T11:14:17.610Z,3.70
2022-08-21T11:16:50.216Z,3.63
2022-08-21T11:19:23.147Z,3.37
2022-08-21T11:21:57.393Z,3.22
2022-08-21T11:24:42.494Z,3.85
2022-08-21T11:27:16.104Z,4.22
2022-08-21T11:29:48.814Z,3.95
2022-08-21T11:32:36.816Z,3.37
2022-08-21T11:35:27.690Z,4.28
2022-08-21T11:38:22.016Z,4.38
2022-08-21T11:41:10.527Z,3.72
2022-08-21T11:43:43.926Z,4.72
2022-08-21T11:46:38.806Z,4.03
2022-08-21T11:49:33.350Z,4.28
2022-08-21T11:52:12.069Z,5.07
2022-08-21T11:54:38.659Z,3.40
2022-08-21T11:57:09.225Z,6.18
2022-08-21T11:59:58.038Z,5.17
2022-08-21T12:02:35.080Z,5.88
2022-08-21T12:05:08.166Z,3.83
2022-08-21T12:07:40.971Z,3.38
2022-08-21T12:10:12.918Z,3.70
2022-08-21T12:12:46.449Z,4.03
2022-08-21T12:15:28.843Z,3.80
2022-08-21T12:18:02.204Z,4.75
2022-08-21T12:20:50.375Z,4.40
2022-08-21T12:23:45.131Z,4.38
2022-08-21T12:26:23.531Z,4.00
2022-08-21T12:28:50.341Z,4.22
2022-08-21T12:31:26.700Z,4.38
2022-08-21T12:33:59.304Z,4.03
2022-08-21T12:36:40.673Z,4.38
2022-08-21T12:39:15.280Z,3.33
2022-08-21T12:42:01.250Z,3.13
2022-08-21T12:44:47.278Z,3.90
2022-08-21T12:47:34.559Z,4.97
2022-08-21T12:50:08.269Z,4.15
2022-08-21T12:52:45.569Z,2.77
2022-08-21T12:55:14.540Z,3.95
2022-08-21T12:57:42.997Z,3.65
2022-08-21T13:00:14.286Z,4.63
2022-08-21T13:02:49.427Z,4.00
2022-08-21T13:05:32.962Z,3.20
2022-08-21T13:08:04.377Z,3.25
2022-08-21T13:10:33.315Z,5.78
2022-08-21T13:13:12.603Z,2.92
2022-08-21T13:15:47.331Z,3.70
2022-08-21T13:18:40.258Z,3.73
2022-08-21T13:21:16.009Z,3.75
2022-08-21T13:23:42.911Z,5.10
2022-08-21T13:26:24.895Z,3.30
2022-08-21T13:28:51.896Z,4.30
2022-08-21T13:31:32.517Z,3.93
2022-08-21T13:33:59.153Z,3.63
2022-08-21T13:36:32.698Z,4.07
2022-08-21T13:39:00.170Z,3.67
2022-08-21T13:41:30.189Z,4.72
2022-08-21T13:44:03.014Z,3.13
2022-08-21T13:46:34.117Z,3.85
2022-08-21T13:49:03.669Z,3.85
2022-08-21T13:51:32.601Z,3.78
2022-08-21T13:53:59.666Z,3.78
2022-08-21T13:56:29.807Z,3.37
2022-08-21T13:58:58.056Z,3.03
2022-08-21T14:01:36.866Z,3.70
2022-08-21T14:04:15.842Z,3.63
2022-08-21T14:06:42.509Z,3.30
2022-08-21T14:09:10.770Z,3.17
2022-08-21T14:11:38.317Z,4.22
2022-08-21T14:14:33.229Z,3.08
2022-08-21T14:17:11.205Z,3.53
2022-08-21T14:19:50.960Z,4.15
2022-08-21T14:22:33.780Z,3.63
2022-08-21T14:25:06.845Z,4.00
2022-08-21T14:27:37.964Z,4.13
2022-08-21T14:30:13.068Z,3.85
2022-08-21T14:32:44.727Z,2.95
2022-08-21T14:35:13.299Z,3.53
2022-08-21T14:37:43.551Z,3.42
2022-08-21T14:40:12.108Z,3.42
2022-08-21T14:42:46.294Z,3.90
2022-08-21T14:45:29.359Z,3.72
2022-08-21T14:47:57.355Z,3.20
2022-08-21T14:50:24.305Z,4.00
2022-08-21T14:52:54.757Z,3.28
2022-08-21T14:55:21.412Z,3.22
2022-08-21T14:57:54.016Z,2.90
2022-08-21T15:00:27.101Z,2.80
2022-08-21T15:03:03.058Z,2.45
2022-08-21T15:05:33.759Z,3.15
2022-08-21T15:08:01.298Z,3.22
2022-08-21T15:10:28.518Z,3.25
2022-08-21T15:12:55.216Z,2.77
2022-08-21T15:15:21.993Z,2.90
2022-08-21T15:17:48.798Z,3.42
2022-08-21T15:20:15.674Z,3.38
2022-08-21T15:22:47.668Z,3.55
2022-08-21T15:25:14.641Z,3.13
2022-08-21T15:27:41.472Z,3.17
2022-08-21T15:30:08.702Z,3.50
2022-08-21T15:32:35.381Z,4.03
2022-08-21T15:35:03.156Z,3.25
2022-08-21T15:37:30.103Z,3.93
2022-08-21T15:39:56.857Z,4.32
2022-08-21T15:42:25.272Z,3.80
2022-08-21T15:44:53.220Z,2.70
2022-08-21T15:47:23.438Z,2.90
2022-08-21T15:49:50.324Z,3.27
2022-08-21T15:52:20.241Z,2.75
2022-08-21T15:54:47.243Z,3.10
2022-08-21T15:57:18.007Z,3.47
2022-08-21T15:59:48.167Z,3.20
2022-08-21T16:02:26.576Z,3.27
2022-08-21T16:04:53.516Z,2.95
2022-08-21T16:07:20.724Z,3.25
2022-08-21T16:09:47.402Z,2.75
2022-08-21T16:12:28.252Z,3.88
2022-08-21T16:14:55.438Z,2.70
2022-08-21T16:17:29.256Z,2.75
2022-08-21T16:19:56.663Z,3.55
2022-08-21T16:22:23.244Z,3.65
2022-08-21T16:24:49.915Z,2.97
2022-08-21T16:27:18.502Z,2.57
2022-08-21T16:29:47.090Z,2.45
2022-08-21T16:32:14.313Z,2.45
2022-08-21T16:34:46.112Z,3.05
2022-08-21T16:37:13.678Z,3.78
2022-08-21T16:39:50.786Z,2.87
2022-08-21T16:42:23.895Z,3.58
2022-08-21T16:44:50.610Z,2.63
2022-08-21T16:47:26.766Z,2.88
2022-08-21T16:49:54.433Z,2.80
2022-08-21T16:52:21.037Z,3.40
2022-08-21T16:54:47.812Z,3.83
2022-08-21T16:57:14.990Z,3.40
2022-08-21T16:59:41.825Z,3.67
2022-08-21T17:02:40.152Z,3.65
2022-08-21T17:05:13.764Z,3.27
2022-08-21T17:07:42.254Z,4.28
2022-08-21T17:10:10.840Z,2.78
2022-08-21T17:12:37.773Z,3.58
2022-08-21T17:15:24.780Z,2.70
2022-08-21T17:17:51.554Z,2.17
2022-08-21T17:20:19.734Z,2.97
2022-08-21T17:22:46.497Z,4.78
2022-08-21T17:25:13.242Z,2.90
2022-08-21T17:27:41.516Z,2.60
2022-08-21T17:30:08.909Z,2.73
2022-08-21T17:32:35.715Z,2.33
2022-08-21T17:35:02.339Z,2.70
2022-08-21T17:37:29.532Z,2.58
2022-08-21T17:39:57.148Z,3.03
2022-08-21T17:42:25.231Z,2.93
2022-08-21T17:44:52.082Z,2.35
2022-08-21T17:47:18.844Z,2.42
2022-08-21T17:49:45.519Z,3.28
2022-08-21T17:52:12.198Z,2.05
2022-08-21T17:54:40.994Z,2.47
2022-08-21T17:57:14.342Z,2.38
2022-08-21T17:59:40.977Z,3.17
2022-08-21T18:02:09.948Z,2.95
2022-08-21T18:04:46.804Z,3.08
2022-08-21T18:07:25.268Z,2.37
2022-08-21T18:10:04.697Z,2.42
2022-08-21T18:12:33.060Z,2.65
2022-08-21T18:15:02.118Z,4.22
2022-08-21T18:17:30.348Z,3.22
2022-08-21T18:19:59.373Z,2.30
2022-08-21T18:22:26.874Z,2.75
2022-08-21T18:24:53.778Z,3.33
2022-08-21T18:27:24.671Z,2.42
2022-08-21T18:29:56.930Z,2.65
2022-08-21T18:32:31.557Z,2.63
2022-08-21T18:35:01.398Z,2.85
2022-08-21T18:37:28.589Z,2.78
2022-08-21T18:39:55.435Z,2.40
2022-08-21T18:42:28.618Z,2.63
2022-08-21T18:45:01.484Z,3.20
2022-08-21T18:47:37.150Z,1.85
2022-08-21T18:50:10.815Z,2.47
2022-08-21T18:52:39.161Z,2.65
2022-08-21T18:55:20.957Z,3.40
2022-08-21T18:57:47.705Z,3.90
2022-08-21T19:00:18.533Z,3.17
2022-08-21T19:02:45.647Z,4.13
2022-08-21T19:05:15.245Z,2.58
2022-08-21T19:07:45.435Z,2.80
2022-08-21T19:10:27.796Z,2.90
2022-08-21T19:12:59.333Z,3.90
2022-08-21T19:15:26.632Z,2.88
2022-08-21T19:17:54.482Z,3.22
2022-08-21T19:20:26.626Z,3.00
2022-08-21T19:22:55.420Z,2.43
2022-08-21T19:25:33.268Z,2.28
2022-08-21T19:28:20.102Z,3.10
2022-08-21T19:31:02.233Z,2.55
2022-08-21T19:33:35.359Z,4.38
2022-08-21T19:36:02.354Z,2.53
2022-08-21T19:38:29.103Z,2.92
2022-08-21T19:40:56.812Z,2.50
2022-08-21T19:43:24.297Z,2.92
2022-08-21T19:45:54.696Z,3.78
2022-08-21T19:48:22.801Z,2.70
2022-08-21T19:50:51.025Z,2.45
2022-08-21T19:53:19.396Z,2.47
2022-08-21T19:55:48.239Z,2.13
2022-08-21T19:58:32.934Z,3.28
2022-08-21T20:00:59.621Z,2.40
2022-08-21T20:03:26.538Z,2.83
2022-08-21T20:08:39.772Z,2.50
2022-08-21T20:11:06.447Z,2.45
2022-08-21T20:13:34.028Z,3.60
2022-08-21T20:16:04.686Z,3.58
2022-08-21T20:18:33.984Z,2.58
2022-08-21T20:21:00.863Z,2.97
2022-08-21T20:26:14.569Z,2.77
2022-08-21T20:28:41.688Z,2.42
2022-08-21T20:31:09.546Z,3.38
2022-08-21T20:33:37.514Z,2.65
2022-08-21T20:36:04.326Z,3.67
2022-08-21T20:38:31.808Z,2.80
2022-08-21T20:40:58.902Z,3.05
2022-08-21T20:43:26.893Z,3.50
2022-08-21T20:45:55.399Z,2.78
2022-08-21T20:48:28.125Z,3.00
2022-08-21T20:51:06.873Z,3.33
2022-08-21T20:53:49.582Z,2.97
2022-08-21T20:56:29.930Z,4.13
2022-08-21T20:59:21.452Z,3.10
2022-08-21T21:01:51.485Z,3.08
2022-08-21T21:04:32.907Z,3.17
2022-08-21T21:07:01.680Z,3.60
2022-08-21T21:09:49.637Z,3.13
2022-08-21T21:12:27.857Z,3.28
2022-08-21T21:15:23.450Z,2.72
2022-08-21T21:21:05.612Z,2.03
2022-08-21T21:23:41.749Z,4.00
2022-08-21T21:26:35.413Z,3.75
2022-08-21T21:29:02.101Z,2.95
2022-08-21T21:31:30.970Z,3.47
2022-08-21T21:33:59.554Z,3.38
2022-08-21T21:36:56.199Z,3.88
2022-08-21T21:39:45.091Z,2.40
2022-08-21T21:42:33.265Z,3.10
2022-08-21T21:45:31.022Z,3.70
2022-08-21T21:48:14.951Z,3.35
2022-08-21T21:51:00.759Z,2.70
2022-08-21T21:53:51.464Z,3.63
2022-08-21T21:56:49.719Z,2.40
2022-08-21T21:59:37.005Z,3.83
2022-08-21T22:02:14.914Z,3.00
2022-08-21T22:04:51.321Z,3.03
2022-08-21T22:07:34.437Z,3.20
2022-08-21T22:10:05.422Z,2.97
2022-08-21T22:13:01.172Z,3.50
2022-08-21T22:15:37.605Z,2.97
2022-08-21T22:18:11.819Z,3.50
2022-08-21T22:20:46.250Z,3.53
2022-08-21T22:23:18.127Z,2.90
2022-08-21T22:25:49.264Z,3.13
2022-08-21T22:31:34.870Z,3.30
2022-08-21T22:34:18.111Z,3.28
2022-08-21T22:37:08.721Z,2.75
2022-08-21T22:39:45.509Z,3.00
2022-08-21T22:42:20.637Z,3.83
2022-08-21T22:44:59.742Z,2.97
2022-08-21T22:47:35.221Z,3.03
2022-08-21T22:50:17.170Z,3.15
2022-08-21T22:52:58.405Z,3.80
2022-08-21T22:55:43.781Z,3.22
2022-08-21T22:58:25.043Z,3.55
2022-08-21T23:00:58.936Z,3.33
2022-08-21T23:03:33.509Z,2.90
2022-08-21T23:06:13.044Z,3.57
2022-08-21T23:08:40.864Z,2.67
2022-08-21T23:11:20.991Z,3.33
2022-08-21T23:13:52.420Z,3.08
2022-08-21T23:16:38.219Z,4.10
2022-08-21T23:19:38.297Z,3.07
2022-08-21T23:22:13.671Z,2.70
2022-08-21T23:24:53.217Z,3.40
2022-08-21T23:27:35.914Z,3.38
2022-08-21T23:30:08.381Z,3.47
2022-08-21T23:33:02.765Z,3.67
2022-08-21T23:36:06.793Z,3.78
2022-08-21T23:38:53.452Z,2.70
2022-08-21T23:41:33.939Z,2.58
2022-08-21T23:44:55.213Z,2.92
2022-08-21T23:47:32.210Z,3.50
2022-08-21T23:52:59.341Z,2.70
2022-08-21T23:55:36.876Z,3.25
2022-08-21T23:58:24.558Z,3.85
